Time;durP1;ratioP1;P1;durP2;ratioP2;P2;SDS_P1;SDS_P2;PMS_P1;PMS_P2;Temp;Humidity;BMP_temperature;BMP_pressure;BME280_temperature;BME280_humidity;BME280_pressure;Samples;Min_cycle;Max_cycle;Signal;HPM_P1;HPM_P2
2023/06/18 00:00:40;;;;;;;9.48;6.85;;;;;;;;;;2094561;28;20048;-61
2023/06/18 00:02:00;;;;;;;8.15;7.28;;;;;;;;;;2093811;28;21064;-60
2023/06/18 00:03:19;;;;;;;7.72;6.70;;;;;;;;;;2093708;28;20469;-59
2023/06/18 00:04:38;;;;;;;7.05;6.43;;;;;;;;;;2094987;28;20534;-61
2023/06/18 00:05:58;;;;;;;7.82;7.00;;;;;;;;;;2096279;28;20099;-60
2023/06/18 00:07:17;;;;;;;7.93;7.13;;;;;;;;;;2095955;28;20037;-61
2023/06/18 00:08:36;;;;;;;10.70;7.32;;;;;;;;;;2096131;28;20385;-59
2023/06/18 00:09:55;;;;;;;11.68;7.00;;;;;;;;;;2095798;28;20052;-60
2023/06/18 00:11:14;;;;;;;7.95;7.15;;;;;;;;;;2096093;28;20033;-59
2023/06/18 00:12:33;;;;;;;10.43;7.00;;;;;;;;;;2092646;28;20028;-60
2023/06/18 00:13:52;;;;;;;8.10;7.40;;;;;;;;;;2096874;28;20100;-60
2023/06/18 00:15:11;;;;;;;9.60;7.07;;;;;;;;;;2083536;28;20033;-61
2023/06/18 00:16:30;;;;;;;8.45;7.63;;;;;;;;;;2089887;28;20061;-60
2023/06/18 00:17:49;;;;;;;12.63;7.57;;;;;;;;;;2083490;28;20506;-60
2023/06/18 00:19:08;;;;;;;12.05;7.30;;;;;;;;;;2089723;28;20033;-60
2023/06/18 00:20:27;;;;;;;10.40;7.30;;;;;;;;;;2095275;28;20437;-61
2023/06/18 00:21:46;;;;;;;11.10;7.80;;;;;;;;;;2085684;28;20026;-61
2023/06/18 00:23:05;;;;;;;8.98;7.40;;;;;;;;;;2091842;28;20116;-61
2023/06/18 00:24:25;;;;;;;8.85;7.13;;;;;;;;;;2095443;28;20033;-61
2023/06/18 00:25:44;;;;;;;7.78;6.82;;;;;;;;;;2084637;28;20033;-61
2023/06/18 00:27:03;;;;;;;10.82;8.00;;;;;;;;;;2092096;28;20021;-60
2023/06/18 00:28:22;;;;;;;8.35;7.50;;;;;;;;;;2095355;28;20659;-60
2023/06/18 00:29:47;;;;;;;8.52;7.22;;;;;;;;;;2097333;28;20473;-61
2023/06/18 00:31:05;;;;;;;9.55;7.90;;;;;;;;;;2094858;28;20032;-61
2023/06/18 00:32:24;;;;;;;10.90;8.00;;;;;;;;;;2095411;28;20480;-61
2023/06/18 00:33:44;;;;;;;11.93;7.55;;;;;;;;;;2093597;28;20025;-61
2023/06/18 00:35:04;;;;;;;10.80;8.30;;;;;;;;;;2093430;28;20020;-61
2023/06/18 00:36:26;;;;;;;9.55;7.53;;;;;;;;;;2094970;28;20559;-61
2023/06/18 00:37:45;;;;;;;13.40;7.38;;;;;;;;;;2094023;28;20028;-62
2023/06/18 00:39:04;;;;;;;10.38;7.38;;;;;;;;;;2077538;28;20029;-60
2023/06/18 00:40:23;;;;;;;11.65;7.65;;;;;;;;;;2087574;28;20032;-60
2023/06/18 00:41:46;;;;;;;8.75;7.38;;;;;;;;;;2093252;28;20100;-60
2023/06/18 00:43:05;;;;;;;7.22;6.55;;;;;;;;;;2095588;28;20044;-61
2023/06/18 00:44:24;;;;;;;8.27;6.95;;;;;;;;;;2095284;28;20024;-61
2023/06/18 00:45:45;;;;;;;8.18;7.40;;;;;;;;;;2096627;28;20041;-61
2023/06/18 00:47:06;;;;;;;8.30;7.45;;;;;;;;;;2092799;28;20032;-59
2023/06/18 00:48:26;;;;;;;8.05;7.15;;;;;;;;;;2094440;28;20111;-59
2023/06/18 00:49:45;;;;;;;9.40;7.75;;;;;;;;;;2093536;28;20032;-61
2023/06/18 00:51:04;;;;;;;7.80;7.10;;;;;;;;;;2096181;28;20040;-60
2023/06/18 00:52:23;;;;;;;11.52;7.85;;;;;;;;;;2095948;28;20079;-60
2023/06/18 00:53:43;;;;;;;7.57;6.88;;;;;;;;;;2091982;28;20032;-60
2023/06/18 00:55:02;;;;;;;10.35;6.97;;;;;;;;;;2094253;28;20032;-60
2023/06/18 00:56:25;;;;;;;9.68;6.82;;;;;;;;;;2094641;28;20021;-60
2023/06/18 00:57:49;;;;;;;8.27;7.30;;;;;;;;;;2094039;28;20029;-61
2023/06/18 00:59:09;;;;;;;10.02;7.55;;;;;;;;;;2093167;28;20486;-61
2023/06/18 01:00:35;;;;;;;9.05;7.40;;;;;;;;;;2095037;28;20024;-60
2023/06/18 01:01:55;;;;;;;9.52;7.60;;;;;;;;;;2094428;28;20048;-60
2023/06/18 01:03:18;;;;;;;9.85;7.40;;;;;;;;;;2094884;28;20029;-61
2023/06/18 01:04:37;;;;;;;8.25;7.43;;;;;;;;;;2094059;28;20025;-60
2023/06/18 01:05:58;;;;;;;13.35;8.23;;;;;;;;;;2095316;28;20032;-60
2023/06/18 01:07:17;;;;;;;13.00;8.35;;;;;;;;;;2094881;28;20397;-61
2023/06/18 01:08:36;;;;;;;13.50;7.93;;;;;;;;;;2092126;28;20037;-60
2023/06/18 01:09:55;;;;;;;11.55;8.65;;;;;;;;;;2094891;28;20028;-60
2023/06/18 01:11:18;;;;;;;11.52;7.80;;;;;;;;;;2095567;28;20107;-60
2023/06/18 01:12:37;;;;;;;9.95;8.05;;;;;;;;;;2095573;28;20033;-61
2023/06/18 01:13:56;;;;;;;10.32;8.05;;;;;;;;;;2087205;28;20021;-60
2023/06/18 01:15:15;;;;;;;11.65;8.80;;;;;;;;;;2088905;28;20757;-60
2023/06/18 01:16:34;;;;;;;12.70;7.97;;;;;;;;;;2094717;28;20032;-60
2023/06/18 01:17:57;;;;;;;12.40;7.43;;;;;;;;;;2094524;28;20020;-60
2023/06/18 01:19:35;;;;;;;11.68;7.65;;;;;;;;;;2095493;28;20478;-59
2023/06/18 01:20:55;;;;;;;8.68;7.70;;;;;;;;;;2094772;28;20028;-60
2023/06/18 01:22:26;;;;;;;9.15;7.38;;;;;;;;;;2094242;28;20532;-61
2023/06/18 01:24:08;;;;;;;8.48;7.28;;;;;;;;;;2094452;28;20115;-60
2023/06/18 01:25:32;;;;;;;10.23;8.45;;;;;;;;;;2089803;28;20458;-60
2023/06/18 01:26:56;;;;;;;;;;;;;;;;;;2095847;28;20024;-61
2023/06/18 01:28:15;;;;;;;13.27;7.90;;;;;;;;;;2094958;28;20386;-60
2023/06/18 01:29:39;;;;;;;8.65;7.80;;;;;;;;;;2093626;28;20029;-60
2023/06/18 01:30:58;;;;;;;8.30;7.57;;;;;;;;;;2091515;28;20493;-61
2023/06/18 01:32:17;;;;;;;12.48;8.30;;;;;;;;;;2093233;28;20017;-60
2023/06/18 01:33:38;;;;;;;8.23;7.53;;;;;;;;;;2095212;28;20033;-61
2023/06/18 01:34:56;;;;;;;8.05;7.22;;;;;;;;;;2093957;28;20086;-60
2023/06/18 01:36:15;;;;;;;9.43;7.53;;;;;;;;;;2093611;28;20013;-60
2023/06/18 01:37:35;;;;;;;10.05;7.57;;;;;;;;;;2092877;28;20045;-61
2023/06/18 01:38:57;;;;;;;8.80;7.90;;;;;;;;;;2093040;28;20028;-60
2023/06/18 01:40:36;;;;;;;9.00;7.68;;;;;;;;;;2093044;28;20028;-61
2023/06/18 01:42:00;;;;;;;9.25;8.18;;;;;;;;;;2093709;28;20016;-60
2023/06/18 01:43:26;;;;;;;8.25;7.50;;;;;;;;;;2091289;28;20028;-61
2023/06/18 01:44:53;;;;;;;8.40;7.70;;;;;;;;;;2090811;28;20085;-61
2023/06/18 01:46:13;;;;;;;9.75;8.05;;;;;;;;;;2090354;28;20613;-62
2023/06/18 01:47:33;;;;;;;9.40;7.45;;;;;;;;;;2093009;28;20303;-60
2023/06/18 01:48:55;;;;;;;8.45;7.65;;;;;;;;;;2093936;28;20032;-60
2023/06/18 01:50:14;;;;;;;;;;;;;;;;;;2084927;28;20441;-61
2023/06/18 01:51:35;;;;;;;9.23;7.45;;;;;;;;;;2087354;28;20308;-61
2023/06/18 01:52:55;;;;;;;9.45;7.53;;;;;;;;;;2089334;28;20111;-61
2023/06/18 01:54:14;;;;;;;12.57;7.70;;;;;;;;;;2092899;28;20033;-61
2023/06/18 01:55:37;;;;;;;9.43;7.70;;;;;;;;;;2092409;28;20434;-60
2023/06/18 01:56:57;;;;;;;9.13;7.63;;;;;;;;;;2090280;28;20028;-60
2023/06/18 01:58:16;;;;;;;9.15;7.97;;;;;;;;;;2082851;28;20017;-61
2023/06/18 01:59:39;;;;;;;8.93;8.02;;;;;;;;;;2089140;28;20021;-60
2023/06/18 02:00:58;;;;;;;10.93;8.32;;;;;;;;;;2095860;28;20477;-60
2023/06/18 02:02:17;;;;;;;8.38;7.57;;;;;;;;;;2095071;28;20071;-60
2023/06/18 02:03:37;;;;;;;14.07;8.77;;;;;;;;;;2095496;28;20377;-61
2023/06/18 02:04:56;;;;;;;11.00;8.60;;;;;;;;;;2091878;28;20393;-61
2023/06/18 02:06:15;;;;;;;10.70;8.10;;;;;;;;;;2095350;28;20111;-61
2023/06/18 02:07:34;;;;;;;8.60;7.80;;;;;;;;;;2094598;28;20025;-59
2023/06/18 02:08:53;;;;;;;9.40;8.38;;;;;;;;;;2092481;28;20056;-61
2023/06/18 02:10:12;;;;;;;8.88;7.97;;;;;;;;;;2095737;28;20044;-60
2023/06/18 02:11:31;;;;;;;8.30;7.60;;;;;;;;;;2092896;28;20529;-61
2023/06/18 02:12:49;;;;;;;9.85;8.15;;;;;;;;;;2094223;28;20120;-60
2023/06/18 02:14:08;;;;;;;8.35;7.47;;;;;;;;;;2091353;28;20033;-61
2023/06/18 02:15:27;;;;;;;8.15;7.45;;;;;;;;;;2092904;28;20033;-60
2023/06/18 02:16:48;;;;;;;8.52;7.63;;;;;;;;;;2093598;28;20461;-61
2023/06/18 02:18:08;;;;;;;9.18;8.35;;;;;;;;;;2093135;28;20029;-59
2023/06/18 02:19:27;;;;;;;8.82;7.63;;;;;;;;;;2093692;28;20025;-61
2023/06/18 02:20:46;;;;;;;8.95;7.68;;;;;;;;;;2095620;28;20537;-60
2023/06/18 02:22:05;;;;;;;8.68;7.97;;;;;;;;;;2095683;28;20029;-60
2023/06/18 02:23:25;;;;;;;9.02;8.13;;;;;;;;;;2094699;28;20037;-61
2023/06/18 02:24:45;;;;;;;11.65;8.05;;;;;;;;;;2081842;28;20450;-61
2023/06/18 02:26:05;;;;;;;9.85;8.60;;;;;;;;;;2090188;28;20032;-60
2023/06/18 02:27:24;;;;;;;10.48;8.50;;;;;;;;;;2095199;28;20040;-60
2023/06/18 02:28:43;;;;;;;9.00;7.85;;;;;;;;;;2094609;28;20040;-61
2023/06/18 02:30:06;;;;;;;10.38;7.95;;;;;;;;;;2092365;28;20036;-61
2023/06/18 02:31:25;;;;;;;;;;;;;;;;;;2094391;28;20111;-61
2023/06/18 02:32:46;;;;;;;10.05;9.02;;;;;;;;;;2093277;28;19916;-61
2023/06/18 02:34:05;;;;;;;9.57;8.57;;;;;;;;;;2092734;28;20037;-60
2023/06/18 02:35:24;;;;;;;8.98;8.15;;;;;;;;;;2094147;28;20041;-61
2023/06/18 02:36:44;;;;;;;9.77;8.80;;;;;;;;;;2095294;28;20063;-61
2023/06/18 02:38:03;;;;;;;8.77;7.70;;;;;;;;;;2092455;28;20033;-60
2023/06/18 02:39:22;;;;;;;9.50;8.35;;;;;;;;;;2093145;28;20386;-65
2023/06/18 02:40:41;;;;;;;9.13;8.25;;;;;;;;;;2091836;28;20156;-61
2023/06/18 02:42:00;;;;;;;10.55;8.10;;;;;;;;;;2095038;28;20029;-61
2023/06/18 02:43:20;;;;;;;9.05;8.25;;;;;;;;;;2095229;28;20075;-61
2023/06/18 02:44:41;;;;;;;9.25;8.25;;;;;;;;;;2091243;28;20021;-61
2023/06/18 02:46:00;;;;;;;9.90;8.80;;;;;;;;;;2093872;28;20021;-61
2023/06/18 02:47:19;;;;;;;11.43;8.50;;;;;;;;;;2093699;28;20036;-61
2023/06/18 02:48:38;;;;;;;9.32;8.50;;;;;;;;;;2091110;28;20486;-61
2023/06/18 02:49:57;;;;;;;10.00;9.13;;;;;;;;;;2095412;28;20052;-60
2023/06/18 02:51:16;;;;;;;11.60;8.32;;;;;;;;;;2093742;28;20408;-61
2023/06/18 02:52:35;;;;;;;9.68;8.68;;;;;;;;;;2094149;28;20028;-61
2023/06/18 02:53:54;;;;;;;9.57;8.75;;;;;;;;;;2093075;28;20017;-61
2023/06/18 02:55:13;;;;;;;9.10;8.20;;;;;;;;;;2094755;28;20075;-61
2023/06/18 02:56:32;;;;;;;10.52;9.48;;;;;;;;;;2094744;28;20486;-61
2023/06/18 02:57:50;;;;;;;11.57;9.50;;;;;;;;;;2093380;28;20477;-59
2023/06/18 02:59:10;;;;;;;11.43;9.20;;;;;;;;;;2093948;28;20101;-61
2023/06/18 03:00:28;;;;;;;11.18;9.65;;;;;;;;;;2094079;28;20040;-61
2023/06/18 03:01:48;;;;;;;9.75;8.85;;;;;;;;;;2092510;28;20024;-60
2023/06/18 03:03:07;;;;;;;10.10;9.10;;;;;;;;;;2094817;28;20028;-61
2023/06/18 03:04:26;;;;;;;10.38;9.27;;;;;;;;;;2094161;28;20464;-61
2023/06/18 03:05:46;;;;;;;9.25;8.45;;;;;;;;;;2093639;28;20025;-60
2023/06/18 03:07:05;;;;;;;11.45;9.13;;;;;;;;;;2092744;28;20486;-61
2023/06/18 03:08:25;;;;;;;10.85;9.70;;;;;;;;;;2092534;28;20033;-70
2023/06/18 03:09:44;;;;;;;9.90;8.77;;;;;;;;;;2094459;28;20577;-61
2023/06/18 03:11:03;;;;;;;10.23;9.20;;;;;;;;;;2084556;28;20371;-59
2023/06/18 03:12:22;;;;;;;11.02;8.98;;;;;;;;;;2089353;28;20399;-61
2023/06/18 03:13:41;;;;;;;10.95;8.75;;;;;;;;;;2095773;28;20032;-60
2023/06/18 03:15:00;;;;;;;13.18;10.32;;;;;;;;;;2086922;28;20029;-60
2023/06/18 03:16:19;;;;;;;10.65;9.68;;;;;;;;;;2092979;28;20064;-61
2023/06/18 03:17:38;;;;;;;11.38;10.18;;;;;;;;;;2096259;28;20032;-61
2023/06/18 03:18:57;;;;;;;10.40;9.40;;;;;;;;;;2095648;28;20037;-59
2023/06/18 03:20:18;;;;;;;9.60;8.82;;;;;;;;;;2096070;28;20028;-61
2023/06/18 03:21:37;;;;;;;10.48;9.50;;;;;;;;;;2095956;28;20028;-59
2023/06/18 03:22:56;;;;;;;11.75;9.48;;;;;;;;;;2085568;28;20029;-61
2023/06/18 03:24:15;;;;;;;10.73;9.65;;;;;;;;;;2092465;28;20024;-61
2023/06/18 03:25:34;;;;;;;9.95;8.95;;;;;;;;;;2095775;28;20032;-61
2023/06/18 03:26:53;;;;;;;11.32;9.90;;;;;;;;;;2094933;28;20401;-61
2023/06/18 03:28:12;;;;;;;10.40;9.50;;;;;;;;;;2095599;28;20040;-61
2023/06/18 03:29:34;;;;;;;11.13;9.32;;;;;;;;;;2095541;28;20032;-61
2023/06/18 03:30:53;;;;;;;13.38;10.30;;;;;;;;;;2094611;28;20502;-60
2023/06/18 03:32:12;;;;;;;11.07;10.05;;;;;;;;;;2095511;28;20033;-60
2023/06/18 03:33:31;;;;;;;12.25;9.43;;;;;;;;;;2095946;28;20036;-61
2023/06/18 03:34:50;;;;;;;10.32;9.32;;;;;;;;;;2096201;28;20029;-61
2023/06/18 03:36:09;;;;;;;11.43;10.23;;;;;;;;;;2094931;28;20044;-60
2023/06/18 03:37:28;;;;;;;11.10;9.98;;;;;;;;;;2093271;28;20028;-61
2023/06/18 03:38:47;;;;;;;12.27;10.10;;;;;;;;;;2094490;28;20025;-60
2023/06/18 03:40:07;;;;;;;11.25;10.18;;;;;;;;;;2096939;28;20064;-61
2023/06/18 03:41:27;;;;;;;11.98;10.73;;;;;;;;;;2096956;28;20460;-59
2023/06/18 03:42:46;;;;;;;10.85;9.85;;;;;;;;;;2095159;28;20033;-60
2023/06/18 03:44:05;;;;;;;12.25;10.90;;;;;;;;;;2095676;28;20525;-60
2023/06/18 03:45:25;;;;;;;11.30;9.85;;;;;;;;;;2095075;28;20074;-61
2023/06/18 03:46:44;;;;;;;11.75;9.90;;;;;;;;;;2094351;28;20033;-60
2023/06/18 03:48:03;;;;;;;10.40;9.50;;;;;;;;;;2095358;28;20406;-61
2023/06/18 03:49:22;;;;;;;11.02;10.02;;;;;;;;;;2095086;28;20037;-60
2023/06/18 03:50:41;;;;;;;11.00;9.90;;;;;;;;;;2092053;28;20509;-61
2023/06/18 03:52:00;;;;;;;12.10;9.95;;;;;;;;;;2086286;28;20033;-60
2023/06/18 03:53:18;;;;;;;12.30;10.68;;;;;;;;;;2090227;28;20029;-60
2023/06/18 03:54:38;;;;;;;11.82;10.23;;;;;;;;;;2095294;28;20028;-61
2023/06/18 03:55:56;;;;;;;11.93;10.00;;;;;;;;;;2094588;28;20052;-61
2023/06/18 03:57:15;;;;;;;10.55;9.45;;;;;;;;;;2092750;28;20024;-61
2023/06/18 03:58:34;;;;;;;11.15;10.05;;;;;;;;;;2096034;28;20477;-61
2023/06/18 03:59:53;;;;;;;14.30;10.82;;;;;;;;;;2095928;28;20494;-60
2023/06/18 04:01:12;;;;;;;11.05;9.52;;;;;;;;;;2092617;28;20131;-60
2023/06/18 04:02:32;;;;;;;10.55;9.25;;;;;;;;;;2095472;28;20509;-60
2023/06/18 04:03:52;;;;;;;11.18;9.98;;;;;;;;;;2095204;28;20167;-61
2023/06/18 04:05:12;;;;;;;11.10;10.00;;;;;;;;;;2094200;28;20021;-61
2023/06/18 04:06:31;;;;;;;11.23;10.23;;;;;;;;;;2092767;28;20044;-61
2023/06/18 04:07:50;;;;;;;11.13;10.02;;;;;;;;;;2091606;28;20476;-63
2023/06/18 04:09:10;;;;;;;10.57;9.57;;;;;;;;;;2094236;28;20104;-60
2023/06/18 04:10:29;;;;;;;11.15;9.98;;;;;;;;;;2095594;28;20036;-59
2023/06/18 04:11:48;;;;;;;10.27;9.27;;;;;;;;;;2095705;28;20033;-61
2023/06/18 04:13:06;;;;;;;12.50;10.82;;;;;;;;;;2095018;28;20024;-60
2023/06/18 04:14:25;;;;;;;11.02;9.98;;;;;;;;;;2093633;28;20025;-61
2023/06/18 04:15:44;;;;;;;12.30;10.40;;;;;;;;;;2092501;28;20048;-60
2023/06/18 04:17:04;;;;;;;11.07;9.98;;;;;;;;;;2097055;28;20028;-60
2023/06/18 04:18:25;;;;;;;10.77;9.60;;;;;;;;;;2094255;28;20024;-60
2023/06/18 04:19:44;;;;;;;10.68;9.60;;;;;;;;;;2095883;28;20033;-61
2023/06/18 04:21:03;;;;;;;12.07;10.50;;;;;;;;;;2093917;28;20035;-62
2023/06/18 04:22:22;;;;;;;11.63;9.80;;;;;;;;;;2096306;28;20036;-60
2023/06/18 04:23:42;;;;;;;10.85;9.77;;;;;;;;;;2096118;28;20028;-61
2023/06/18 04:25:00;;;;;;;11.38;10.18;;;;;;;;;;2095975;28;20421;-60
2023/06/18 04:26:20;;;;;;;10.90;9.85;;;;;;;;;;2092211;28;20044;-61
2023/06/18 04:27:39;;;;;;;11.50;10.30;;;;;;;;;;2094038;28;20490;-61
2023/06/18 04:28:58;;;;;;;11.80;10.57;;;;;;;;;;2096300;28;20028;-61
2023/06/18 04:30:17;;;;;;;11.00;9.70;;;;;;;;;;2091651;28;20036;-61
2023/06/18 04:31:36;;;;;;;11.50;10.30;;;;;;;;;;2091150;28;20033;-60
2023/06/18 04:32:55;;;;;;;11.35;10.15;;;;;;;;;;2092556;28;20083;-61
2023/06/18 04:34:14;;;;;;;10.80;9.80;;;;;;;;;;2093934;28;20096;-59
2023/06/18 04:35:33;;;;;;;11.43;10.32;;;;;;;;;;2093241;28;20033;-61
2023/06/18 04:36:52;;;;;;;11.73;10.52;;;;;;;;;;2095363;28;20025;-60
2023/06/18 04:38:11;;;;;;;11.70;10.50;;;;;;;;;;2095612;28;20028;-60
2023/06/18 04:39:30;;;;;;;11.07;10.07;;;;;;;;;;2095276;28;20424;-61
2023/06/18 04:40:49;;;;;;;11.35;10.10;;;;;;;;;;2094595;28;20028;-61
2023/06/18 04:42:08;;;;;;;11.65;10.65;;;;;;;;;;2086941;28;20026;-61
2023/06/18 04:43:27;;;;;;;11.15;10.07;;;;;;;;;;2080554;28;20044;-61
2023/06/18 04:44:46;;;;;;;11.02;10.07;;;;;;;;;;2078282;28;20104;-60
2023/06/18 04:46:05;;;;;;;11.43;10.35;;;;;;;;;;2089121;28;20111;-61
2023/06/18 04:47:24;;;;;;;13.02;10.32;;;;;;;;;;2086957;28;20055;-61
2023/06/18 04:48:43;;;;;;;12.13;10.85;;;;;;;;;;2087441;28;20029;-61
2023/06/18 04:50:03;;;;;;;12.57;10.85;;;;;;;;;;2093480;28;20028;-61
2023/06/18 04:51:23;;;;;;;12.50;11.30;;;;;;;;;;2092567;28;20028;-60
2023/06/18 04:52:42;;;;;;;12.20;11.07;;;;;;;;;;2083428;28;20031;-61
2023/06/18 04:54:01;;;;;;;13.68;11.43;;;;;;;;;;2091268;28;20032;-60
2023/06/18 04:55:20;;;;;;;12.57;10.82;;;;;;;;;;2094220;28;20390;-60
2023/06/18 04:56:39;;;;;;;10.50;9.50;;;;;;;;;;2094476;28;20033;-61
2023/06/18 04:57:58;;;;;;;12.48;11.20;;;;;;;;;;2094081;28;20382;-61
2023/06/18 04:59:19;;;;;;;11.88;10.68;;;;;;;;;;2096339;28;20055;-61
2023/06/18 05:00:38;;;;;;;11.48;10.38;;;;;;;;;;2091417;28;20153;-60
2023/06/18 05:01:57;;;;;;;12.30;10.63;;;;;;;;;;2095309;28;20049;-60
2023/06/18 05:03:16;;;;;;;11.07;10.07;;;;;;;;;;2092692;28;20037;-61
2023/06/18 05:04:35;;;;;;;10.65;9.65;;;;;;;;;;2093478;28;20107;-60
2023/06/18 05:05:54;;;;;;;12.90;10.93;;;;;;;;;;2091382;28;20444;-61
2023/06/18 05:07:13;;;;;;;11.63;9.82;;;;;;;;;;2094912;28;20040;-60
2023/06/18 05:08:32;;;;;;;11.38;9.70;;;;;;;;;;2093618;28;20029;-61
2023/06/18 05:09:51;;;;;;;10.98;9.60;;;;;;;;;;2094240;28;20025;-60
2023/06/18 05:11:10;;;;;;;10.75;9.73;;;;;;;;;;2093629;28;20040;-60
2023/06/18 05:12:29;;;;;;;10.70;9.70;;;;;;;;;;2093903;28;20033;-61
2023/06/18 05:13:48;;;;;;;11.35;10.35;;;;;;;;;;2095560;28;20491;-59
2023/06/18 05:15:07;;;;;;;10.38;9.45;;;;;;;;;;2093680;28;20029;-61
2023/06/18 05:16:26;;;;;;;11.70;10.02;;;;;;;;;;2086226;28;20024;-60
2023/06/18 05:17:45;;;;;;;10.70;9.60;;;;;;;;;;2090717;28;20017;-63
2023/06/18 05:19:04;;;;;;;11.32;10.20;;;;;;;;;;2095803;28;20032;-61
2023/06/18 05:20:23;;;;;;;10.32;9.30;;;;;;;;;;2081693;28;20029;-61
2023/06/18 05:21:42;;;;;;;12.25;9.57;;;;;;;;;;2091235;28;20396;-63
2023/06/18 05:23:01;;;;;;;10.23;9.18;;;;;;;;;;2094991;28;20063;-62
2023/06/18 05:24:20;;;;;;;10.68;9.77;;;;;;;;;;2093204;28;20033;-62
2023/06/18 05:25:39;;;;;;;11.15;9.70;;;;;;;;;;2095156;28;20025;-63
2023/06/18 05:26:59;;;;;;;11.35;10.20;;;;;;;;;;2096009;28;20032;-62
2023/06/18 05:28:19;;;;;;;10.40;9.50;;;;;;;;;;2093967;28;20028;-62
2023/06/18 05:29:38;;;;;;;11.48;9.50;;;;;;;;;;2094300;28;20036;-62
2023/06/18 05:30:57;;;;;;;10.23;9.23;;;;;;;;;;2091428;28;20040;-62
2023/06/18 05:32:16;;;;;;;11.88;10.13;;;;;;;;;;2094732;28;20618;-63
2023/06/18 05:33:35;;;;;;;10.38;9.40;;;;;;;;;;2094626;28;20040;-61
2023/06/18 05:34:57;;;;;;;10.50;9.52;;;;;;;;;;2096910;28;20056;-63
2023/06/18 05:36:16;;;;;;;10.25;9.25;;;;;;;;;;2092060;28;20124;-63
2023/06/18 05:37:35;;;;;;;12.15;9.20;;;;;;;;;;2091358;28;20119;-63
2023/06/18 05:38:59;;;;;;;11.77;9.82;;;;;;;;;;2094683;28;20104;-61
2023/06/18 05:40:18;;;;;;;9.65;8.85;;;;;;;;;;2089116;28;20434;-63
2023/06/18 05:41:37;;;;;;;11.07;9.93;;;;;;;;;;2093348;28;20025;-63
2023/06/18 05:42:56;;;;;;;12.15;9.80;;;;;;;;;;2092305;28;20036;-62
2023/06/18 05:44:15;;;;;;;13.52;10.02;;;;;;;;;;2093016;28;20058;-63
2023/06/18 05:45:34;;;;;;;10.27;9.38;;;;;;;;;;2092991;28;20501;-61
2023/06/18 05:46:54;;;;;;;9.93;8.95;;;;;;;;;;2091940;28;20033;-63
2023/06/18 05:48:14;;;;;;;9.73;8.82;;;;;;;;;;2092341;28;20405;-61
2023/06/18 05:49:33;;;;;;;10.15;9.23;;;;;;;;;;2092260;28;20550;-63
2023/06/18 05:50:52;;;;;;;10.13;9.25;;;;;;;;;;2094432;28;20424;-62
2023/06/18 05:52:11;;;;;;;10.85;9.75;;;;;;;;;;2093085;28;21442;-62
2023/06/18 05:53:30;;;;;;;12.63;10.23;;;;;;;;;;2088672;28;20037;-62
2023/06/18 05:54:49;;;;;;;9.82;8.77;;;;;;;;;;2075058;28;20026;-61
2023/06/18 05:56:08;;;;;;;12.15;9.85;;;;;;;;;;2089829;28;20032;-63
2023/06/18 05:57:27;;;;;;;12.82;9.65;;;;;;;;;;2096143;28;20131;-62
2023/06/18 05:58:46;;;;;;;11.43;9.98;;;;;;;;;;2094215;28;20100;-63
2023/06/18 06:00:05;;;;;;;13.27;10.18;;;;;;;;;;2094035;28;20021;-61
2023/06/18 06:01:24;;;;;;;10.00;9.10;;;;;;;;;;2093769;28;20025;-63
2023/06/18 06:02:44;;;;;;;11.43;10.32;;;;;;;;;;2093203;28;20061;-61
2023/06/18 06:04:04;;;;;;;10.93;9.82;;;;;;;;;;2092295;28;20037;-61
2023/06/18 06:05:23;;;;;;;11.85;10.65;;;;;;;;;;2093539;28;20029;-62
2023/06/18 06:06:42;;;;;;;9.88;8.93;;;;;;;;;;2091224;28;20020;-62
2023/06/18 06:08:01;;;;;;;9.48;8.55;;;;;;;;;;2094241;28;20020;-63
2023/06/18 06:09:20;;;;;;;9.90;8.90;;;;;;;;;;2094284;28;20026;-62
2023/06/18 06:10:40;;;;;;;11.60;9.52;;;;;;;;;;2092778;28;21603;-62
2023/06/18 06:11:59;;;;;;;9.75;8.85;;;;;;;;;;2094939;28;20490;-63
2023/06/18 06:13:19;;;;;;;9.73;8.65;;;;;;;;;;2093669;28;20111;-62
2023/06/18 06:14:37;;;;;;;10.68;9.68;;;;;;;;;;2091068;28;20025;-61
2023/06/18 06:15:56;;;;;;;10.38;9.35;;;;;;;;;;2094349;28;20024;-63
2023/06/18 06:17:15;;;;;;;10.43;9.00;;;;;;;;;;2095031;28;20469;-63
2023/06/18 06:18:35;;;;;;;10.10;8.88;;;;;;;;;;2093971;28;20481;-62
2023/06/18 06:19:54;;;;;;;10.63;9.05;;;;;;;;;;2093748;28;20033;-62
2023/06/18 06:21:12;;;;;;;10.27;9.20;;;;;;;;;;2093901;28;20020;-63
2023/06/18 06:22:31;;;;;;;9.27;8.38;;;;;;;;;;2093777;28;20029;-63
2023/06/18 06:23:51;;;;;;;9.85;8.88;;;;;;;;;;2082553;28;20026;-62
2023/06/18 06:25:10;;;;;;;10.50;8.13;;;;;;;;;;2087216;28;21391;-63
2023/06/18 06:26:29;;;;;;;9.23;8.30;;;;;;;;;;2093506;28;20064;-62
2023/06/18 06:27:48;;;;;;;13.63;9.02;;;;;;;;;;2093525;28;20028;-61
2023/06/18 06:29:08;;;;;;;9.20;8.30;;;;;;;;;;2083313;28;20033;-63
2023/06/18 06:30:27;;;;;;;10.25;8.65;;;;;;;;;;2085794;28;20099;-62
2023/06/18 06:31:45;;;;;;;9.43;8.50;;;;;;;;;;2091222;28;20748;-59
2023/06/18 06:33:05;;;;;;;10.60;8.75;;;;;;;;;;2093610;28;20072;-57
2023/06/18 06:34:24;;;;;;;10.63;8.02;;;;;;;;;;2093425;28;20017;-57
2023/06/18 06:35:43;;;;;;;10.88;8.57;;;;;;;;;;2092888;28;20012;-56
2023/06/18 06:37:02;;;;;;;10.13;8.70;;;;;;;;;;2094869;28;20036;-58
2023/06/18 06:38:20;;;;;;;9.68;8.40;;;;;;;;;;2094853;28;20025;-56
2023/06/18 06:39:39;;;;;;;11.45;8.88;;;;;;;;;;2093437;28;20285;-56
2023/06/18 06:40:58;;;;;;;8.80;7.90;;;;;;;;;;2091137;28;20017;-56
2023/06/18 06:42:17;;;;;;;10.02;8.65;;;;;;;;;;2084272;28;20029;-59
2023/06/18 06:43:36;;;;;;;9.13;8.35;;;;;;;;;;2086549;28;20477;-58
2023/06/18 06:44:55;;;;;;;9.68;8.77;;;;;;;;;;2092016;28;20107;-59
2023/06/18 06:46:14;;;;;;;13.43;8.85;;;;;;;;;;2094440;28;20036;-59
2023/06/18 06:47:33;;;;;;;10.30;9.27;;;;;;;;;;2094078;28;20044;-58
2023/06/18 06:48:52;;;;;;;9.73;8.82;;;;;;;;;;2094768;28;20421;-60
2023/06/18 06:50:11;;;;;;;9.45;8.45;;;;;;;;;;2089673;28;20493;-58
2023/06/18 06:51:30;;;;;;;9.38;8.10;;;;;;;;;;2094962;28;20029;-59
2023/06/18 06:52:50;;;;;;;11.00;8.93;;;;;;;;;;2095153;28;20402;-61
2023/06/18 06:54:09;;;;;;;12.35;8.55;;;;;;;;;;2094107;28;20021;-61
2023/06/18 06:55:28;;;;;;;10.27;8.65;;;;;;;;;;2094469;28;20040;-58
2023/06/18 06:56:47;;;;;;;11.25;9.00;;;;;;;;;;2086426;28;20104;-59
2023/06/18 06:58:06;;;;;;;10.30;9.23;;;;;;;;;;2089827;28;20028;-58
2023/06/18 06:59:25;;;;;;;9.93;8.82;;;;;;;;;;2093084;28;20923;-61
2023/06/18 07:00:44;;;;;;;11.98;8.23;;;;;;;;;;2086697;28;20530;-57
2023/06/18 07:02:03;;;;;;;9.90;8.90;;;;;;;;;;2094185;28;20040;-57
2023/06/18 07:03:23;;;;;;;8.00;7.13;;;;;;;;;;2095256;28;20029;-58
2023/06/18 07:04:46;;;;;;;10.48;8.90;;;;;;;;;;2095208;28;20037;-57
2023/06/18 07:06:06;;;;;;;12.13;9.23;;;;;;;;;;2092515;28;20410;-58
2023/06/18 07:07:25;;;;;;;9.48;8.43;;;;;;;;;;2093466;28;20393;-58
2023/06/18 07:08:44;;;;;;;11.45;8.50;;;;;;;;;;2094596;28;20581;-58
2023/06/18 07:10:04;;;;;;;9.45;8.23;;;;;;;;;;2094683;28;20416;-57
2023/06/18 07:11:23;;;;;;;9.43;7.78;;;;;;;;;;2094155;28;20055;-57
2023/06/18 07:12:42;;;;;;;9.23;8.32;;;;;;;;;;2093701;28;20032;-58
2023/06/18 07:14:01;;;;;;;8.35;7.55;;;;;;;;;;2091427;28;20024;-58
2023/06/18 07:15:20;;;;;;;8.57;7.78;;;;;;;;;;2093028;28;20029;-58
2023/06/18 07:16:39;;;;;;;10.02;8.23;;;;;;;;;;2095589;28;20064;-59
2023/06/18 07:17:58;;;;;;;11.50;7.05;;;;;;;;;;2096890;28;20021;-59
2023/06/18 07:19:17;;;;;;;13.32;8.48;;;;;;;;;;2095203;28;20064;-58
2023/06/18 07:20:36;;;;;;;10.98;8.65;;;;;;;;;;2095347;28;20489;-59
2023/06/18 07:21:55;;;;;;;9.00;8.07;;;;;;;;;;2095536;28;20028;-60
2023/06/18 07:23:13;;;;;;;8.85;7.93;;;;;;;;;;2094553;28;20037;-59
2023/06/18 07:24:32;;;;;;;8.52;7.80;;;;;;;;;;2091774;28;20020;-57
2023/06/18 07:25:51;;;;;;;9.93;7.93;;;;;;;;;;2094629;28;20029;-60
2023/06/18 07:27:10;;;;;;;9.95;7.80;;;;;;;;;;2095814;28;20115;-60
2023/06/18 07:28:30;;;;;;;10.60;8.55;;;;;;;;;;2095360;28;20434;-63
2023/06/18 07:29:49;;;;;;;8.95;8.05;;;;;;;;;;2093692;28;20032;-59
2023/06/18 07:31:08;;;;;;;10.38;8.10;;;;;;;;;;2093545;28;20119;-59
2023/06/18 07:32:27;;;;;;;10.18;8.15;;;;;;;;;;2088720;28;20572;-57
2023/06/18 07:33:46;;;;;;;8.02;7.22;;;;;;;;;;2089972;28;20037;-58
2023/06/18 07:35:06;;;;;;;9.80;8.65;;;;;;;;;;2095132;28;20028;-57
2023/06/18 07:36:25;;;;;;;10.82;7.70;;;;;;;;;;2094393;28;20417;-60
2023/06/18 07:37:44;;;;;;;11.13;7.65;;;;;;;;;;2084367;28;20567;-61
2023/06/18 07:39:03;;;;;;;10.07;7.88;;;;;;;;;;2088529;28;20032;-58
2023/06/18 07:40:22;;;;;;;13.77;8.07;;;;;;;;;;2093718;28;20016;-58
2023/06/18 07:41:41;;;;;;;10.57;7.65;;;;;;;;;;2095267;28;20024;-57
2023/06/18 07:43:00;;;;;;;8.20;7.35;;;;;;;;;;2093244;28;20025;-58
2023/06/18 07:44:20;;;;;;;9.63;7.75;;;;;;;;;;2094289;28;20029;-59
2023/06/18 07:45:39;;;;;;;8.15;6.93;;;;;;;;;;2084878;28;21171;-59
2023/06/18 07:46:58;;;;;;;8.73;7.20;;;;;;;;;;2090914;28;20454;-58
2023/06/18 07:48:17;;;;;;;10.00;7.40;;;;;;;;;;2095080;28;20494;-59
2023/06/18 07:49:36;;;;;;;9.90;7.47;;;;;;;;;;2094071;28;20037;-59
2023/06/18 07:50:55;;;;;;;8.95;7.80;;;;;;;;;;2094413;28;20033;-59
2023/06/18 07:52:14;;;;;;;8.65;7.32;;;;;;;;;;2095747;28;20409;-58